Kobuk Valley National Park, AK

5:55 AM AKDT op 02 september 2014 (GMT -0800)
Noatak | Change Station
CLOSE
Current Station
Luchthaven
Location: Noatak,
Geometrische hoogte: 85 ft
Nabije weerstations

Hoogte 85 ft 67.57 °N, 162.98 °W | Updated 19 minutes ago

Overcast
Geheel bewolkt
34 °F
Voelt als 26 °F
N
9
Wind Variabel Wind van west

Vandaag
Hoog -- | Laag -- °F
--% Kans op neerslag
Gisteren
Hoog -- | Laag -- °F
Precip. -- inches
7:14 AM 10:05 PM
Eerste kwartier, 51% visible
Druk 29.70 inches
Zicht 6.0 mijlen
Wolken Licht bewolkt 1200 ft
Merendeels bewolkt 2200 ft
Geheel bewolkt 5000 ft
Gevoelstemperatuur 26 °F
Dauwpunt 30 °F
Vochtigheid 87%
Neerslag 0.10 inches
Dikte sneeuw Niet beschikbaar.
UV 0 van de 12
Pollen Niet beschikbaar.
Luchtkwaliteit Niet beschikbaar.
Flu Activity Niet beschikbaar.
METAR PAWN 021336Z AUTO 28008KT 6SM SCT012 BKN022 OVC050 01/M01 A2970 RMK AO1 P0001

More Conditions Fewer Conditions

Druk 29.70 inches
Zicht 6.0 mijlen
Wolken Licht bewolkt 1200 ft
Merendeels bewolkt 2200 ft
Geheel bewolkt 5000 ft
Gevoelstemperatuur 26 °F
Dauwpunt 30 °F
Vochtigheid 87%
Neerslag 0.10 inches
Dikte sneeuw Niet beschikbaar.
UV 0 van de 12
Pollen Niet beschikbaar.
Luchtkwaliteit Niet beschikbaar.
Flu Activity Niet beschikbaar.
METAR PAWN 021336Z AUTO 28008KT 6SM SCT012 BKN022 OVC050 01/M01 A2970 RMK AO1 P0001

More Conditions Fewer Conditions

10-Day Weather Forecast

Almanac

Astronomie

Sep. 02, 2014 Opkomst Ondergang
Werkelijke tijd 7:14 AM AKDT 10:05 PM AKDT
Burgerlijke schemering 6:11 AM AKDT 11:07 PM AKDT
Nautische schemering 4:33 AM AKDT 12:42 AM AKDT
Astronomische schemering Sun does not rise Sun does not rise
Maan 6:45 PM AKDT 11:35 PM AKDT
Golflengte van het zichtbare licht 16h 56m
Daglengte
14h 50m
Tomorrow will be 7m 45s shorter.
Eerste kwartier, 51% of the Moon is Illuminated
Vandaag
Eerste kwartier
sep 8
Volle maan
sep 15
Laatste kwartier
sep 24
Nieuw
oktober 1
Eerste kwartier

Extremen vandaag

State Highs State Lows

Community

WunderPhotos

Upload Photos

1,749,656 foto’s ge-upload!

Nearby

Luchtkwaliteit

Not available.

Dikte sneeuw

Station Depth Geometrische hoogte
Rocky Point 4 in 500 ft
Gobblers Knob 0 in 2030 ft
Coldfoot 0 in 1040 ft
Atigun Pass 9 in 4800 ft
Imnaviat Creek 0 in 3050 ft

Aardbevingen

Stad Distance Mag. Time & Date
No recent earthquake activity has been reported nearby.
Minimum magnitude displayed is 2.5.

Watertemperatuur langs de kust

Plaats Temperatuur
Geen meldingen van stations

Nabije weerstations